Hovedside
METAR-TAF:

METAR-TAF

Lufthavner :

Kronoby lufthavn

Karleby, Finland

breddegrad: 63-43N, lengdegrad: 023-09E, høyde over havet: 25 m

Gjeldene værobservasjon

Denne rapporten ble laget for 15 minutter siden, klokken 20:50 UTC
Vind 8 kt fra Sør
Temperatur 9°C
Luftfuktighet 66%
Trykk 1023 hPa
Sikt 10 km eller mer
ingen skyer under 1500 m og ingen bygeskyer

METAR: EFKK 232050Z AUTO 18008KT CAVOK 09/03 Q1023

Tid: 00:05 (21:05 UTC)

Varsel

Denne rapporten ble laget for 44 minutter siden, klokken 20:21 UTC
Varsel gyldig fra 23. klokken 21 UTC til 23. klokken 23 UTC
Vind 7 kt fra Sør
Sikt 10 km eller mer
ingen skyer under 1500 m og ingen bygeskyer

TAF: EFKK 232021Z 2321/2323 19007KT CAVOK

Værobservasjoner og værvarsel for over 4000 flyplasser (METAR- og TAF-rapporter).

Tilgjengelige stasjoner er representert av de røde og gule prikkene på kartet.

Hold musepekeren over prikken for å se navnet på stasjonen.

Klikk så for å se værobservasjoner og -varsler.

For å forandre kartet kan du klikke på den grønne knappen med svart kryss for å zoome inn, på den grønne knappen med strek for å zoome ut, eller på de grønne pilene for å se tilstøtende kart.


METAR-TAF: